sensor_id;sensor_type;location;lat;lon;timestamp;temperature;humidity
66373;SHT30;53168;51.146;17.120;2024-02-23T00:00:26;9.55;79.75
66373;SHT30;53168;51.146;17.120;2024-02-23T00:03:22;9.55;79.84
66373;SHT30;53168;51.146;17.120;2024-02-23T00:05:57;9.56;79.93
66373;SHT30;53168;51.146;17.120;2024-02-23T00:08:31;9.58;80.00
66373;SHT30;53168;51.146;17.120;2024-02-23T00:11:06;9.61;80.00
66373;SHT30;53168;51.146;17.120;2024-02-23T00:13:41;9.65;79.98
66373;SHT30;53168;51.146;17.120;2024-02-23T00:16:15;9.69;79.89
66373;SHT30;53168;51.146;17.120;2024-02-23T00:18:51;9.72;79.81
66373;SHT30;53168;51.146;17.120;2024-02-23T00:21:25;9.77;79.80
66373;SHT30;53168;51.146;17.120;2024-02-23T00:24:00;9.82;79.72
66373;SHT30;53168;51.146;17.120;2024-02-23T00:26:36;9.87;79.67
66373;SHT30;53168;51.146;17.120;2024-02-23T00:29:11;9.92;79.58
66373;SHT30;53168;51.146;17.120;2024-02-23T00:31:45;9.96;79.53
66373;SHT30;53168;51.146;17.120;2024-02-23T00:34:20;9.98;79.42
66373;SHT30;53168;51.146;17.120;2024-02-23T00:36:55;9.99;79.49
66373;SHT30;53168;51.146;17.120;2024-02-23T00:39:29;10.00;79.50
66373;SHT30;53168;51.146;17.120;2024-02-23T00:42:04;10.00;79.47
66373;SHT30;53168;51.146;17.120;2024-02-23T00:44:40;10.01;79.51
66373;SHT30;53168;51.146;17.120;2024-02-23T00:47:14;10.01;79.50
66373;SHT30;53168;51.146;17.120;2024-02-23T00:49:49;10.01;79.53
66373;SHT30;53168;51.146;17.120;2024-02-23T00:52:23;10.03;79.60
66373;SHT30;53168;51.146;17.120;2024-02-23T00:54:58;10.04;79.66
66373;SHT30;53168;51.146;17.120;2024-02-23T00:57:32;10.04;79.72
66373;SHT30;53168;51.146;17.120;2024-02-23T01:00:12;10.04;79.78
66373;SHT30;53168;51.146;17.120;2024-02-23T01:02:46;10.04;79.87
66373;SHT30;53168;51.146;17.120;2024-02-23T01:05:21;10.05;79.99
66373;SHT30;53168;51.146;17.120;2024-02-23T01:07:56;10.08;80.00
66373;SHT30;53168;51.146;17.120;2024-02-23T01:10:35;10.10;80.00
66373;SHT30;53168;51.146;17.120;2024-02-23T01:13:10;10.12;79.99
66373;SHT30;53168;51.146;17.120;2024-02-23T01:15:45;10.14;79.97
66373;SHT30;53168;51.146;17.120;2024-02-23T01:18:19;10.16;79.90
66373;SHT30;53168;51.146;17.120;2024-02-23T01:20:53;10.16;79.87
66373;SHT30;53168;51.146;17.120;2024-02-23T01:23:30;10.16;79.85
66373;SHT30;53168;51.146;17.120;2024-02-23T01:26:04;10.15;79.90
66373;SHT30;53168;51.146;17.120;2024-02-23T01:28:39;10.13;79.88
66373;SHT30;53168;51.146;17.120;2024-02-23T01:31:14;10.13;79.87
66373;SHT30;53168;51.146;17.120;2024-02-23T01:33:49;10.11;79.81
66373;SHT30;53168;51.146;17.120;2024-02-23T01:36:24;10.11;79.80
66373;SHT30;53168;51.146;17.120;2024-02-23T01:38:59;10.12;79.79
66373;SHT30;53168;51.146;17.120;2024-02-23T01:41:33;10.12;79.79
66373;SHT30;53168;51.146;17.120;2024-02-23T01:44:08;10.13;79.69
66373;SHT30;53168;51.146;17.120;2024-02-23T01:46:44;10.16;79.59
66373;SHT30;53168;51.146;17.120;2024-02-23T01:49:19;10.17;79.43
66373;SHT30;53168;51.146;17.120;2024-02-23T01:52:01;10.21;79.29
66373;SHT30;53168;51.146;17.120;2024-02-23T01:54:38;10.24;79.17
66373;SHT30;53168;51.146;17.120;2024-02-23T01:57:13;10.27;79.04
66373;SHT30;53168;51.146;17.120;2024-02-23T02:00:13;10.33;78.92
66373;SHT30;53168;51.146;17.120;2024-02-23T02:02:57;10.36;78.82
66373;SHT30;53168;51.146;17.120;2024-02-23T02:05:31;10.37;78.73
66373;SHT30;53168;51.146;17.120;2024-02-23T02:08:08;10.42;78.54
66373;SHT30;53168;51.146;17.120;2024-02-23T02:10:45;10.47;78.32
66373;SHT30;53168;51.146;17.120;2024-02-23T02:13:21;10.50;78.20
66373;SHT30;53168;51.146;17.120;2024-02-23T02:15:55;10.50;78.11
66373;SHT30;53168;51.146;17.120;2024-02-23T02:18:31;10.50;78.04
66373;SHT30;53168;51.146;17.120;2024-02-23T02:21:05;10.51;77.87
66373;SHT30;53168;51.146;17.120;2024-02-23T02:23:40;10.50;77.81
66373;SHT30;53168;51.146;17.120;2024-02-23T02:26:15;10.53;77.49
66373;SHT30;53168;51.146;17.120;2024-02-23T02:28:50;10.53;77.45
66373;SHT30;53168;51.146;17.120;2024-02-23T02:31:25;10.54;77.30
66373;SHT30;53168;51.146;17.120;2024-02-23T02:33:59;10.54;77.21
66373;SHT30;53168;51.146;17.120;2024-02-23T02:36:34;10.55;77.08
66373;SHT30;53168;51.146;17.120;2024-02-23T02:39:08;10.55;76.98
66373;SHT30;53168;51.146;17.120;2024-02-23T02:41:43;10.55;76.91
66373;SHT30;53168;51.146;17.120;2024-02-23T02:44:17;10.55;76.96
66373;SHT30;53168;51.146;17.120;2024-02-23T02:46:52;10.51;77.01
66373;SHT30;53168;51.146;17.120;2024-02-23T02:49:27;10.47;77.02
66373;SHT30;53168;51.146;17.120;2024-02-23T02:52:01;10.43;77.02
66373;SHT30;53168;51.146;17.120;2024-02-23T02:54:36;10.42;77.03
66373;SHT30;53168;51.146;17.120;2024-02-23T02:57:10;10.42;77.01
66373;SHT30;53168;51.146;17.120;2024-02-23T02:59:47;10.40;77.00
66373;SHT30;53168;51.146;17.120;2024-02-23T03:02:22;10.42;76.90
66373;SHT30;53168;51.146;17.120;2024-02-23T03:04:57;10.41;76.99
66373;SHT30;53168;51.146;17.120;2024-02-23T03:07:31;10.39;77.00
66373;SHT30;53168;51.146;17.120;2024-02-23T03:10:07;10.39;76.98
66373;SHT30;53168;51.146;17.120;2024-02-23T03:12:42;10.38;76.98
66373;SHT30;53168;51.146;17.120;2024-02-23T03:15:17;10.39;76.92
66373;SHT30;53168;51.146;17.120;2024-02-23T03:17:52;10.39;76.90
66373;SHT30;53168;51.146;17.120;2024-02-23T03:20:28;10.40;76.90
66373;SHT30;53168;51.146;17.120;2024-02-23T03:23:06;10.41;76.88
66373;SHT30;53168;51.146;17.120;2024-02-23T03:25:42;10.41;76.87
66373;SHT30;53168;51.146;17.120;2024-02-23T03:28:16;10.40;76.88
66373;SHT30;53168;51.146;17.120;2024-02-23T03:30:51;10.40;76.83
66373;SHT30;53168;51.146;17.120;2024-02-23T03:33:26;10.43;76.79
66373;SHT30;53168;51.146;17.120;2024-02-23T03:36:04;10.44;76.74
66373;SHT30;53168;51.146;17.120;2024-02-23T03:38:39;10.46;76.66
66373;SHT30;53168;51.146;17.120;2024-02-23T03:41:14;10.50;76.58
66373;SHT30;53168;51.146;17.120;2024-02-23T03:43:48;10.53;76.46
66373;SHT30;53168;51.146;17.120;2024-02-23T03:46:23;10.56;76.40
66373;SHT30;53168;51.146;17.120;2024-02-23T03:48:58;10.57;76.38
66373;SHT30;53168;51.146;17.120;2024-02-23T03:51:32;10.55;76.49
66373;SHT30;53168;51.146;17.120;2024-02-23T03:54:10;10.53;76.46
66373;SHT30;53168;51.146;17.120;2024-02-23T03:56:50;10.52;76.50
66373;SHT30;53168;51.146;17.120;2024-02-23T03:59:24;10.49;76.50
66373;SHT30;53168;51.146;17.120;2024-02-23T04:01:59;10.49;76.50
66373;SHT30;53168;51.146;17.120;2024-02-23T04:04:35;10.47;76.50
66373;SHT30;53168;51.146;17.120;2024-02-23T04:07:09;10.47;76.50
66373;SHT30;53168;51.146;17.120;2024-02-23T04:09:44;10.47;76.50
66373;SHT30;53168;51.146;17.120;2024-02-23T04:12:24;10.48;76.50
66373;SHT30;53168;51.146;17.120;2024-02-23T04:14:59;10.48;76.49
66373;SHT30;53168;51.146;17.120;2024-02-23T04:17:34;10.50;76.43
66373;SHT30;53168;51.146;17.120;2024-02-23T04:20:10;10.52;76.34
66373;SHT30;53168;51.146;17.120;2024-02-23T04:22:45;10.53;76.39
66373;SHT30;53168;51.146;17.120;2024-02-23T04:25:19;10.54;76.35
66373;SHT30;53168;51.146;17.120;2024-02-23T04:27:54;10.54;76.31
66373;SHT30;53168;51.146;17.120;2024-02-23T04:30:28;10.54;76.35
66373;SHT30;53168;51.146;17.120;2024-02-23T04:33:03;10.52;76.36
66373;SHT30;53168;51.146;17.120;2024-02-23T04:35:41;10.52;76.30
66373;SHT30;53168;51.146;17.120;2024-02-23T04:38:16;10.55;76.20
66373;SHT30;53168;51.146;17.120;2024-02-23T04:40:50;10.56;76.05
66373;SHT30;53168;51.146;17.120;2024-02-23T04:43:25;10.59;75.94
66373;SHT30;53168;51.146;17.120;2024-02-23T04:45:59;10.60;75.82
66373;SHT30;53168;51.146;17.120;2024-02-23T04:48:35;10.60;75.81
66373;SHT30;53168;51.146;17.120;2024-02-23T04:51:10;10.61;75.77
66373;SHT30;53168;51.146;17.120;2024-02-23T04:53:45;10.63;75.63
66373;SHT30;53168;51.146;17.120;2024-02-23T04:56:19;10.62;75.60
66373;SHT30;53168;51.146;17.120;2024-02-23T04:58:55;10.64;75.48
66373;SHT30;53168;51.146;17.120;2024-02-23T05:01:34;10.65;75.41
66373;SHT30;53168;51.146;17.120;2024-02-23T05:04:09;10.68;75.34
66373;SHT30;53168;51.146;17.120;2024-02-23T05:06:44;10.69;75.36
66373;SHT30;53168;51.146;17.120;2024-02-23T05:09:18;10.69;75.37
66373;SHT30;53168;51.146;17.120;2024-02-23T05:11:53;10.70;75.27
66373;SHT30;53168;51.146;17.120;2024-02-23T05:14:28;10.71;75.22
66373;SHT30;53168;51.146;17.120;2024-02-23T05:17:03;10.69;75.27
66373;SHT30;53168;51.146;17.120;2024-02-23T05:19:38;10.67;75.30
66373;SHT30;53168;51.146;17.120;2024-02-23T05:22:13;10.65;75.37
66373;SHT30;53168;51.146;17.120;2024-02-23T05:24:47;10.63;75.40
66373;SHT30;53168;51.146;17.120;2024-02-23T05:27:22;10.60;75.40
66373;SHT30;53168;51.146;17.120;2024-02-23T05:29:58;10.61;75.39
66373;SHT30;53168;51.146;17.120;2024-02-23T05:32:36;10.60;75.41
66373;SHT30;53168;51.146;17.120;2024-02-23T05:35:11;10.60;75.39
66373;SHT30;53168;51.146;17.120;2024-02-23T05:37:46;10.60;75.38
66373;SHT30;53168;51.146;17.120;2024-02-23T05:40:25;10.60;75.39
66373;SHT30;53168;51.146;17.120;2024-02-23T05:43:00;10.61;75.38
66373;SHT30;53168;51.146;17.120;2024-02-23T05:45:35;10.63;75.24
66373;SHT30;53168;51.146;17.120;2024-02-23T05:48:10;10.63;75.30
66373;SHT30;53168;51.146;17.120;2024-02-23T05:50:46;10.61;75.30
66373;SHT30;53168;51.146;17.120;2024-02-23T05:53:20;10.60;75.31
66373;SHT30;53168;51.146;17.120;2024-02-23T05:55:55;10.60;75.32
66373;SHT30;53168;51.146;17.120;2024-02-23T05:58:30;10.58;75.39
66373;SHT30;53168;51.146;17.120;2024-02-23T06:01:05;10.56;75.41
66373;SHT30;53168;51.146;17.120;2024-02-23T06:03:47;10.54;75.47
66373;SHT30;53168;51.146;17.120;2024-02-23T06:06:21;10.54;75.49
66373;SHT30;53168;51.146;17.120;2024-02-23T06:08:57;10.54;75.45
66373;SHT30;53168;51.146;17.120;2024-02-23T06:11:32;10.55;75.41
66373;SHT30;53168;51.146;17.120;2024-02-23T06:14:12;10.55;75.40
66373;SHT30;53168;51.146;17.120;2024-02-23T06:16:47;10.56;75.38
66373;SHT30;53168;51.146;17.120;2024-02-23T06:19:22;10.59;75.32
66373;SHT30;53168;51.146;17.120;2024-02-23T06:21:57;10.57;75.31
66373;SHT30;53168;51.146;17.120;2024-02-23T06:24:33;10.57;75.33
66373;SHT30;53168;51.146;17.120;2024-02-23T06:27:07;10.55;75.36
66373;SHT30;53168;51.146;17.120;2024-02-23T06:29:42;10.56;75.34
66373;SHT30;53168;51.146;17.120;2024-02-23T06:32:17;10.56;75.32
66373;SHT30;53168;51.146;17.120;2024-02-23T06:34:52;10.57;75.26
66373;SHT30;53168;51.146;17.120;2024-02-23T06:37:31;10.59;75.15
66373;SHT30;53168;51.146;17.120;2024-02-23T06:40:12;10.61;74.98
66373;SHT30;53168;51.146;17.120;2024-02-23T06:42:47;10.66;74.76
66373;SHT30;53168;51.146;17.120;2024-02-23T06:45:22;10.73;74.34
66373;SHT30;53168;51.146;17.120;2024-02-23T06:47:57;10.82;74.06
66373;SHT30;53168;51.146;17.120;2024-02-23T06:50:32;10.89;73.92
66373;SHT30;53168;51.146;17.120;2024-02-23T06:53:08;10.93;73.71
66373;SHT30;53168;51.146;17.120;2024-02-23T06:55:43;10.96;73.53
66373;SHT30;53168;51.146;17.120;2024-02-23T06:58:18;11.03;73.16
66373;SHT30;53168;51.146;17.120;2024-02-23T07:00:53;11.07;72.95
66373;SHT30;53168;51.146;17.120;2024-02-23T07:03:28;11.13;72.62
66373;SHT30;53168;51.146;17.120;2024-02-23T07:06:03;11.17;72.44
66373;SHT30;53168;51.146;17.120;2024-02-23T07:08:43;11.23;72.03
66373;SHT30;53168;51.146;17.120;2024-02-23T07:11:19;11.29;71.62
66373;SHT30;53168;51.146;17.120;2024-02-23T07:13:55;11.35;71.50
66373;SHT30;53168;51.146;17.120;2024-02-23T07:16:30;11.36;71.57
66373;SHT30;53168;51.146;17.120;2024-02-23T07:19:07;11.39;71.42
66373;SHT30;53168;51.146;17.120;2024-02-23T07:21:46;11.41;71.19
66373;SHT30;53168;51.146;17.120;2024-02-23T07:24:21;11.42;71.10
66373;SHT30;53168;51.146;17.120;2024-02-23T07:26:56;11.44;70.84
66373;SHT30;53168;51.146;17.120;2024-02-23T07:29:31;11.46;70.98
66373;SHT30;53168;51.146;17.120;2024-02-23T07:32:07;11.45;70.90
66373;SHT30;53168;51.146;17.120;2024-02-23T07:34:45;11.46;70.51
66373;SHT30;53168;51.146;17.120;2024-02-23T07:37:21;11.47;70.46
66373;SHT30;53168;51.146;17.120;2024-02-23T07:39:59;11.48;70.28
66373;SHT30;53168;51.146;17.120;2024-02-23T07:42:36;11.49;70.26
66373;SHT30;53168;51.146;17.120;2024-02-23T07:45:13;11.49;70.18
66373;SHT30;53168;51.146;17.120;2024-02-23T07:47:48;11.50;70.02
66373;SHT30;53168;51.146;17.120;2024-02-23T07:50:24;11.52;69.84
66373;SHT30;53168;51.146;17.120;2024-02-23T07:53:00;11.54;69.71
66373;SHT30;53168;51.146;17.120;2024-02-23T07:55:36;11.57;69.39
66373;SHT30;53168;51.146;17.120;2024-02-23T07:58:12;11.60;69.15
66373;SHT30;53168;51.146;17.120;2024-02-23T08:00:50;11.64;69.11
66373;SHT30;53168;51.146;17.120;2024-02-23T08:03:25;11.67;68.92
66373;SHT30;53168;51.146;17.120;2024-02-23T08:06:00;11.73;68.78
66373;SHT30;53168;51.146;17.120;2024-02-23T08:08:34;11.79;68.69
66373;SHT30;53168;51.146;17.120;2024-02-23T08:11:09;11.85;68.73
66373;SHT30;53168;51.146;17.120;2024-02-23T08:13:45;11.91;68.60
66373;SHT30;53168;51.146;17.120;2024-02-23T08:16:20;11.97;68.35
66373;SHT30;53168;51.146;17.120;2024-02-23T08:18:54;12.04;68.33
66373;SHT30;53168;51.146;17.120;2024-02-23T08:21:29;12.12;68.13
66373;SHT30;53168;51.146;17.120;2024-02-23T08:24:04;12.20;67.90
66373;SHT30;53168;51.146;17.120;2024-02-23T08:26:39;12.30;67.61
66373;SHT30;53168;51.146;17.120;2024-02-23T08:29:14;12.36;67.52
66373;SHT30;53168;51.146;17.120;2024-02-23T08:31:49;12.43;67.28
66373;SHT30;53168;51.146;17.120;2024-02-23T08:34:24;12.48;67.15
66373;SHT30;53168;51.146;17.120;2024-02-23T08:36:58;12.50;67.11
66373;SHT30;53168;51.146;17.120;2024-02-23T08:39:33;12.50;66.93
66373;SHT30;53168;51.146;17.120;2024-02-23T08:42:08;12.49;67.27
66373;SHT30;53168;51.146;17.120;2024-02-23T08:44:43;12.47;66.92
66373;SHT30;53168;51.146;17.120;2024-02-23T08:47:29;12.43;66.23
66373;SHT30;53168;51.146;17.120;2024-02-23T08:50:08;12.36;65.31
66373;SHT30;53168;51.146;17.120;2024-02-23T08:52:44;12.30;64.68
66373;SHT30;53168;51.146;17.120;2024-02-23T08:55:19;12.25;63.07
66373;SHT30;53168;51.146;17.120;2024-02-23T08:57:53;12.22;63.71
66373;SHT30;53168;51.146;17.120;2024-02-23T09:00:28;12.18;63.11
66373;SHT30;53168;51.146;17.120;2024-02-23T09:03:03;12.16;62.38
66373;SHT30;53168;51.146;17.120;2024-02-23T09:05:37;12.12;61.30
66373;SHT30;53168;51.146;17.120;2024-02-23T09:08:12;12.11;61.30
66373;SHT30;53168;51.146;17.120;2024-02-23T09:10:47;12.09;60.84
66373;SHT30;53168;51.146;17.120;2024-02-23T09:13:22;12.10;61.25
66373;SHT30;53168;51.146;17.120;2024-02-23T09:15:57;12.11;60.95
66373;SHT30;53168;51.146;17.120;2024-02-23T09:18:32;12.11;60.44
66373;SHT30;53168;51.146;17.120;2024-02-23T09:21:07;12.14;60.39
66373;SHT30;53168;51.146;17.120;2024-02-23T09:23:41;12.18;59.97
66373;SHT30;53168;51.146;17.120;2024-02-23T09:26:18;12.25;60.02
66373;SHT30;53168;51.146;17.120;2024-02-23T09:28:54;12.30;59.78
66373;SHT30;53168;51.146;17.120;2024-02-23T09:31:29;12.36;59.54
66373;SHT30;53168;51.146;17.120;2024-02-23T09:34:05;12.43;59.80
66373;SHT30;53168;51.146;17.120;2024-02-23T09:36:39;12.48;59.27
66373;SHT30;53168;51.146;17.120;2024-02-23T09:39:18;12.52;58.98
66373;SHT30;53168;51.146;17.120;2024-02-23T09:41:53;12.57;59.43
66373;SHT30;53168;51.146;17.120;2024-02-23T09:44:33;12.57;58.33
66373;SHT30;53168;51.146;17.120;2024-02-23T09:47:08;12.50;57.97
66373;SHT30;53168;51.146;17.120;2024-02-23T09:49:49;12.41;57.91
66373;SHT30;53168;51.146;17.120;2024-02-23T09:52:25;12.36;58.53
66373;SHT30;53168;51.146;17.120;2024-02-23T09:55:01;12.31;57.77
66373;SHT30;53168;51.146;17.120;2024-02-23T09:57:36;12.23;57.70
66373;SHT30;53168;51.146;17.120;2024-02-23T10:00:13;12.15;57.23
66373;SHT30;53168;51.146;17.120;2024-02-23T10:02:50;12.09;57.51
66373;SHT30;53168;51.146;17.120;2024-02-23T10:05:31;12.03;56.98
66373;SHT30;53168;51.146;17.120;2024-02-23T10:08:10;11.97;57.58
66373;SHT30;53168;51.146;17.120;2024-02-23T10:10:47;11.97;57.74
66373;SHT30;53168;51.146;17.120;2024-02-23T10:13:25;11.99;57.72
66373;SHT30;53168;51.146;17.120;2024-02-23T10:16:01;12.03;57.22
66373;SHT30;53168;51.146;17.120;2024-02-23T10:18:46;12.06;57.34
66373;SHT30;53168;51.146;17.120;2024-02-23T10:21:21;12.11;57.33
66373;SHT30;53168;51.146;17.120;2024-02-23T10:23:57;12.17;57.43
66373;SHT30;53168;51.146;17.120;2024-02-23T10:26:31;12.23;57.20
66373;SHT30;53168;51.146;17.120;2024-02-23T10:29:05;12.26;56.48
66373;SHT30;53168;51.146;17.120;2024-02-23T10:31:48;12.30;57.15
66373;SHT30;53168;51.146;17.120;2024-02-23T10:34:25;12.33;56.40
66373;SHT30;53168;51.146;17.120;2024-02-23T10:37:05;12.31;56.22
66373;SHT30;53168;51.146;17.120;2024-02-23T10:39:41;12.34;56.71
66373;SHT30;53168;51.146;17.120;2024-02-23T10:42:23;12.39;56.25
66373;SHT30;53168;51.146;17.120;2024-02-23T10:45:03;12.39;56.05
66373;SHT30;53168;51.146;17.120;2024-02-23T10:47:40;12.43;56.68
66373;SHT30;53168;51.146;17.120;2024-02-23T10:50:16;12.53;56.43
66373;SHT30;53168;51.146;17.120;2024-02-23T10:52:52;12.54;55.77
66373;SHT30;53168;51.146;17.120;2024-02-23T10:55:29;12.54;56.08
66373;SHT30;53168;51.146;17.120;2024-02-23T10:58:12;12.58;56.18
66373;SHT30;53168;51.146;17.120;2024-02-23T11:00:47;12.68;56.48
66373;SHT30;53168;51.146;17.120;2024-02-23T11:06:30;12.83;56.00
66373;SHT30;53168;51.146;17.120;2024-02-23T11:09:09;12.90;55.90
66373;SHT30;53168;51.146;17.120;2024-02-23T11:11:55;12.99;55.77
66373;SHT30;53168;51.146;17.120;2024-02-23T11:14:35;13.01;54.86
66373;SHT30;53168;51.146;17.120;2024-02-23T11:17:19;13.00;55.00
66373;SHT30;53168;51.146;17.120;2024-02-23T11:19:56;13.02;54.91
66373;SHT30;53168;51.146;17.120;2024-02-23T11:22:34;13.08;54.57
66373;SHT30;53168;51.146;17.120;2024-02-23T11:25:10;13.13;54.56
66373;SHT30;53168;51.146;17.120;2024-02-23T11:27:50;13.20;54.70
66373;SHT30;53168;51.146;17.120;2024-02-23T11:30:27;13.26;54.09
66373;SHT30;53168;51.146;17.120;2024-02-23T11:33:09;13.32;54.14
66373;SHT30;53168;51.146;17.120;2024-02-23T11:35:49;13.32;54.64
66373;SHT30;53168;51.146;17.120;2024-02-23T11:38:25;13.32;54.33
66373;SHT30;53168;51.146;17.120;2024-02-23T11:41:04;13.29;54.11
66373;SHT30;53168;51.146;17.120;2024-02-23T11:43:40;13.27;54.40
66373;SHT30;53168;51.146;17.120;2024-02-23T11:46:16;13.24;54.38
66373;SHT30;53168;51.146;17.120;2024-02-23T11:48:51;13.25;54.53
66373;SHT30;53168;51.146;17.120;2024-02-23T11:51:27;13.26;54.52
66373;SHT30;53168;51.146;17.120;2024-02-23T11:54:02;13.22;54.51
66373;SHT30;53168;51.146;17.120;2024-02-23T11:56:37;13.12;54.46
66373;SHT30;53168;51.146;17.120;2024-02-23T11:59:13;13.03;54.17
66373;SHT30;53168;51.146;17.120;2024-02-23T12:01:48;12.96;54.59
66373;SHT30;53168;51.146;17.120;2024-02-23T12:04:23;12.92;54.52
66373;SHT30;53168;51.146;17.120;2024-02-23T12:07:00;12.84;54.43
66373;SHT30;53168;51.146;17.120;2024-02-23T12:09:36;12.75;54.56
66373;SHT30;53168;51.146;17.120;2024-02-23T12:12:12;12.62;53.70
66373;SHT30;53168;51.146;17.120;2024-02-23T12:14:48;12.51;53.51
66373;SHT30;53168;51.146;17.120;2024-02-23T12:17:22;12.41;53.85
66373;SHT30;53168;51.146;17.120;2024-02-23T12:20:02;12.32;53.66
66373;SHT30;53168;51.146;17.120;2024-02-23T12:22:40;12.24;54.11
66373;SHT30;53168;51.146;17.120;2024-02-23T12:25:14;12.22;54.12
66373;SHT30;53168;51.146;17.120;2024-02-23T12:27:56;12.19;54.01
66373;SHT30;53168;51.146;17.120;2024-02-23T12:30:32;12.15;54.28
66373;SHT30;53168;51.146;17.120;2024-02-23T12:33:08;12.12;54.55
66373;SHT30;53168;51.146;17.120;2024-02-23T12:35:43;12.09;54.49
66373;SHT30;53168;51.146;17.120;2024-02-23T12:38:18;12.01;54.60
66373;SHT30;53168;51.146;17.120;2024-02-23T12:40:53;11.92;55.19
66373;SHT30;53168;51.146;17.120;2024-02-23T12:43:28;11.85;55.76
66373;SHT30;53168;51.146;17.120;2024-02-23T12:46:02;11.80;56.17
66373;SHT30;53168;51.146;17.120;2024-02-23T12:48:39;11.73;56.55
66373;SHT30;53168;51.146;17.120;2024-02-23T12:51:14;11.67;56.92
66373;SHT30;53168;51.146;17.120;2024-02-23T12:53:48;11.64;57.38
66373;SHT30;53168;51.146;17.120;2024-02-23T12:56:23;11.61;57.75
66373;SHT30;53168;51.146;17.120;2024-02-23T12:58:57;11.58;58.09
66373;SHT30;53168;51.146;17.120;2024-02-23T13:01:32;11.55;58.34
66373;SHT30;53168;51.146;17.120;2024-02-23T13:04:12;11.51;58.45
66373;SHT30;53168;51.146;17.120;2024-02-23T13:06:46;11.49;58.67
66373;SHT30;53168;51.146;17.120;2024-02-23T13:09:21;11.48;58.95
66373;SHT30;53168;51.146;17.120;2024-02-23T13:11:56;11.44;59.09
66373;SHT30;53168;51.146;17.120;2024-02-23T13:14:31;11.43;59.24
66373;SHT30;53168;51.146;17.120;2024-02-23T13:17:06;11.42;59.50
66373;SHT30;53168;51.146;17.120;2024-02-23T13:19:40;11.41;59.74
66373;SHT30;53168;51.146;17.120;2024-02-23T13:22:30;11.37;59.98
66373;SHT30;53168;51.146;17.120;2024-02-23T13:25:06;11.32;59.99
66373;SHT30;53168;51.146;17.120;2024-02-23T13:27:41;11.25;60.13
66373;SHT30;53168;51.146;17.120;2024-02-23T13:30:16;11.20;60.02
66373;SHT30;53168;51.146;17.120;2024-02-23T13:32:51;11.16;59.98
66373;SHT30;53168;51.146;17.120;2024-02-23T13:35:26;11.13;60.35
66373;SHT30;53168;51.146;17.120;2024-02-23T13:38:01;11.06;61.14
66373;SHT30;53168;51.146;17.120;2024-02-23T13:40:38;11.00;61.63
66373;SHT30;53168;51.146;17.120;2024-02-23T13:43:13;10.95;62.06
66373;SHT30;53168;51.146;17.120;2024-02-23T13:45:52;10.88;62.37
66373;SHT30;53168;51.146;17.120;2024-02-23T13:48:27;10.80;62.80
66373;SHT30;53168;51.146;17.120;2024-02-23T13:51:02;10.70;62.76
66373;SHT30;53168;51.146;17.120;2024-02-23T13:53:38;10.67;62.81
66373;SHT30;53168;51.146;17.120;2024-02-23T13:56:13;10.62;62.69
66373;SHT30;53168;51.146;17.120;2024-02-23T13:58:48;10.60;62.52
66373;SHT30;53168;51.146;17.120;2024-02-23T14:01:23;10.59;62.51
66373;SHT30;53168;51.146;17.120;2024-02-23T14:03:57;10.59;62.52
66373;SHT30;53168;51.146;17.120;2024-02-23T14:06:34;10.57;62.54
66373;SHT30;53168;51.146;17.120;2024-02-23T14:09:09;10.53;62.54
66373;SHT30;53168;51.146;17.120;2024-02-23T14:11:44;10.51;62.53
66373;SHT30;53168;51.146;17.120;2024-02-23T14:14:19;10.49;62.44
66373;SHT30;53168;51.146;17.120;2024-02-23T14:16:54;10.51;62.51
66373;SHT30;53168;51.146;17.120;2024-02-23T14:19:28;10.52;62.51
66373;SHT30;53168;51.146;17.120;2024-02-23T14:22:05;10.55;62.38
66373;SHT30;53168;51.146;17.120;2024-02-23T14:24:39;10.56;62.28
66373;SHT30;53168;51.146;17.120;2024-02-23T14:27:15;10.55;62.11
66373;SHT30;53168;51.146;17.120;2024-02-23T14:29:50;10.53;62.21
66373;SHT30;53168;51.146;17.120;2024-02-23T14:32:26;10.48;62.25
66373;SHT30;53168;51.146;17.120;2024-02-23T14:35:01;10.43;62.39
66373;SHT30;53168;51.146;17.120;2024-02-23T14:37:36;10.39;62.57
66373;SHT30;53168;51.146;17.120;2024-02-23T14:40:12;10.36;62.62
66373;SHT30;53168;51.146;17.120;2024-02-23T14:42:48;10.31;62.72
66373;SHT30;53168;51.146;17.120;2024-02-23T14:45:23;10.28;62.77
66373;SHT30;53168;51.146;17.120;2024-02-23T14:47:59;10.25;62.96
66373;SHT30;53168;51.146;17.120;2024-02-23T14:50:35;10.21;63.04
66373;SHT30;53168;51.146;17.120;2024-02-23T14:53:10;10.17;63.09
66373;SHT30;53168;51.146;17.120;2024-02-23T14:55:44;10.16;63.36
66373;SHT30;53168;51.146;17.120;2024-02-23T14:58:20;10.14;63.45
66373;SHT30;53168;51.146;17.120;2024-02-23T15:00:55;10.10;63.50
66373;SHT30;53168;51.146;17.120;2024-02-23T15:03:32;10.07;63.52
66373;SHT30;53168;51.146;17.120;2024-02-23T15:06:08;10.06;63.54
66373;SHT30;53168;51.146;17.120;2024-02-23T15:08:43;10.07;63.49
66373;SHT30;53168;51.146;17.120;2024-02-23T15:11:18;10.11;63.54
66373;SHT30;53168;51.146;17.120;2024-02-23T15:13:53;10.14;63.60
66373;SHT30;53168;51.146;17.120;2024-02-23T15:16:33;10.13;63.54
66373;SHT30;53168;51.146;17.120;2024-02-23T15:19:08;10.12;63.57
66373;SHT30;53168;51.146;17.120;2024-02-23T15:21:52;10.14;63.61
66373;SHT30;53168;51.146;17.120;2024-02-23T15:24:37;10.15;63.65
66373;SHT30;53168;51.146;17.120;2024-02-23T15:27:20;10.14;63.69
66373;SHT30;53168;51.146;17.120;2024-02-23T15:30:10;10.11;63.73
66373;SHT30;53168;51.146;17.120;2024-02-23T15:33:02;10.06;63.93
66373;SHT30;53168;51.146;17.120;2024-02-23T15:35:48;10.00;64.08
66373;SHT30;53168;51.146;17.120;2024-02-23T15:38:37;9.90;64.18
66373;SHT30;53168;51.146;17.120;2024-02-23T15:41:22;9.81;64.39
66373;SHT30;53168;51.146;17.120;2024-02-23T15:44:04;9.73;64.49
66373;SHT30;53168;51.146;17.120;2024-02-23T15:46:38;9.65;64.69
66373;SHT30;53168;51.146;17.120;2024-02-23T15:49:14;9.55;64.74
66373;SHT30;53168;51.146;17.120;2024-02-23T15:52:17;9.46;64.98
66373;SHT30;53168;51.146;17.120;2024-02-23T15:54:51;9.40;65.16
66373;SHT30;53168;51.146;17.120;2024-02-23T15:57:26;9.35;65.35
66373;SHT30;53168;51.146;17.120;2024-02-23T16:00:01;9.31;65.52
66373;SHT30;53168;51.146;17.120;2024-02-23T16:02:39;9.28;65.62
66373;SHT30;53168;51.146;17.120;2024-02-23T16:05:14;9.26;65.89
66373;SHT30;53168;51.146;17.120;2024-02-23T16:07:48;9.22;65.97
66373;SHT30;53168;51.146;17.120;2024-02-23T16:10:22;9.21;66.09
66373;SHT30;53168;51.146;17.120;2024-02-23T16:12:57;9.20;66.23
66373;SHT30;53168;51.146;17.120;2024-02-23T16:15:33;9.16;66.50